Latest Weather Observations for Scottsdale

IDT60801

Issued at 8:33 pm EDT Thursday 2 April 2015 (issued every 30 minutes, with the page automatically refreshed every 10 minutes)

About weather observations | Map of weather stations | Latest weather observations for TAS | Other Formats
Station Details ID: 091219 Name: SCOTTSDALE (WEST MINSTONE ROAD) Lat: -41.17 Lon: 147.49 Height: 197.5 m
Data from the previous 72 hours. | See also: Recent months at Scottsdale
Date/Time
EDT
Temp
°C
App
Temp
°C
Dew
Point
Rel
Hum
%
Delta-T
°C
Wind Press
QNH
hPa
Press
MSL
hPa
Rain
since 9 am
mm
Dir
 
Spd
km/h
Gust
km/h
Spd
kts
Gust
kts
02/08:30pm 9.3 5.0 1.3 57 3.3 SSW 13 24 7 13 1023.0 - 6.0
02/08:00pm 9.8 4.8 1.1 54 3.6 SSW 17 26 9 14 1022.5 - 6.0
02/07:30pm 10.2 5.6 1.4 54 3.7 S 15 24 8 13 1021.9 - 6.0
02/07:00pm 10.9 5.4 0.8 49 4.2 S 19 32 10 17 1021.4 - 6.0
02/06:30pm 11.5 6.1 1.4 50 4.3 SSW 19 28 10 15 1020.9 - 6.0
02/06:00pm 11.9 6.4 1.6 49 4.4 SSW 20 32 11 17 1020.2 1020.2 6.0
02/05:30pm 12.2 4.6 0.8 45 4.8 SSW 30 50 16 27 1019.8 - 6.0
02/05:25pm 12.3 5.2 1.3 47 4.7 SSW 28 48 15 26 1019.7 - 6.0
02/05:00pm 12.3 4.6 0.0 43 5.1 SSW 30 44 16 24 1019.2 - 6.0
02/04:48pm 12.7 5.4 0.0 41 5.3 SSW 28 54 15 29 1019.0 - 6.0
02/04:30pm 13.1 5.5 0.3 41 5.4 SW 30 41 16 22 1018.6 - 6.0
02/04:00pm 13.9 8.6 2.1 45 5.2 S 19 41 10 22 1018.1 - 6.0
02/03:30pm 13.3 5.0 1.9 46 5.0 S 35 57 19 31 1017.2 - 6.0
02/03:00pm 12.2 5.2 2.1 50 4.4 SSW 28 46 15 25 1016.8 1016.8 6.0
02/02:30pm 12.4 5.4 4.1 57 3.8 S 30 46 16 25 1016.8 - 6.0
02/02:01pm 11.6 4.7 4.4 61 3.3 S 30 48 16 26 1016.3 - 6.0
02/02:00pm 11.8 5.0 4.9 62 3.2 S 30 43 16 23 1016.4 - 6.0
02/01:30pm 10.9 4.2 3.7 61 3.2 S 28 46 15 25 1016.1 - 6.0
02/01:18pm 10.7 4.1 4.3 64 2.9 S 28 50 15 27 1016.3 - 6.0
02/01:00pm 10.5 4.5 5.5 71 2.3 S 26 43 14 23 1016.1 - 6.0
02/12:30pm 10.5 3.8 5.5 71 2.3 S 30 56 16 30 1015.1 - 6.0
02/12:02pm 10.4 4.1 5.7 72 2.2 SSW 28 50 15 27 1013.7 - 6.0
02/12:00pm 10.4 4.4 5.4 71 2.3 SSW 26 46 14 25 1013.7 1013.7 6.0
02/11:35am 10.3 3.1 6.0 75 2.0 S 33 52 18 28 1013.4 - 6.0
02/11:30am 10.5 3.3 5.8 72 2.2 S 33 48 18 26 1013.4 - 6.0
02/11:12am 10.3 4.3 7.2 81 1.5 S 28 52 15 28 1013.3 - 6.0
02/11:00am 10.4 5.2 7.3 81 1.5 S 24 33 13 18 1013.2 - 5.8
02/10:30am 10.8 7.0 9.0 89 0.9 SSW 19 24 10 13 1012.1 - 5.8
02/10:00am 10.9 7.0 9.5 91 0.7 ESE 20 30 11 16 1011.6 - 5.2
02/09:30am 11.4 6.7 10.6 95 0.4 ESE 26 35 14 19 1011.0 - 4.0
02/09:23am 11.7 6.6 10.6 93 0.6 ESE 28 46 15 25 1010.7 - 3.4
02/09:13am 12.4 7.2 11.7 95 0.4 E 30 44 16 24 1010.6 - 0.6
02/09:00am 13.1 12.6 12.2 94 0.5 SSE 6 9 3 5 1010.1 1010.2 0.2
02/08:30am 12.7 12.0 12.1 96 0.3 SSE 7 11 4 6 1009.7 - 0.2
02/08:00am 12.8 12.3 12.1 95 0.4 ENE 6 9 3 5 1009.5 - 0.2
02/07:30am 13.6 14.4 12.5 93 0.6 CALM 0 0 0 0 1009.3 - 0.2
02/07:00am 13.8 12.8 12.3 91 0.8 WNW 9 13 5 7 1008.9 - 0.2
02/06:30am 13.2 12.7 12.5 95 0.4 WNW 7 11 4 6 1008.6 - 0.2
02/06:00am 14.0 13.1 12.7 92 0.7 WNW 9 13 5 7 1008.5 1008.4 0.2
02/05:30am 14.3 13.1 12.9 91 0.8 NW 11 19 6 10 1008.3 - 0.2
02/05:00am 14.4 11.7 12.8 90 0.9 NW 19 26 10 14 1008.2 - 0.2
02/04:30am 14.9 13.3 13.8 93 0.6 NW 15 24 8 13 1007.7 - 0.2
02/04:00am 15.2 14.9 14.3 94 0.5 WNW 9 13 5 7 1007.7 - 0.2
02/03:30am 15.6 14.1 14.2 91 0.8 WNW 15 22 8 12 1008.0 - 0.2
02/03:00am 15.8 13.8 13.9 88 1.1 NW 17 24 9 13 1008.4 1008.3 0.2
02/02:30am 16.4 15.2 12.8 79 2.0 NNW 11 17 6 9 1008.3 - 0.0
02/02:00am 16.9 15.2 12.4 75 2.5 NW 13 20 7 11 1008.3 - 0.0
02/01:30am 16.8 16.0 12.9 78 2.2 WNW 9 13 5 7 1008.7 - 0.0
02/01:00am 17.0 16.2 12.9 77 2.3 W 9 13 5 7 1008.8 - 0.0
02/12:30am 16.6 16.0 13.6 82 1.7 NW 9 13 5 7 1009.0 - 0.0
02/12:00am 16.7 16.5 13.7 82 1.7 NNW 7 13 4 7 1009.2 1009.2 0.0
 
Date/Time
EDT
Temp
°C
App
Temp
°C
Dew
Point
Rel
Hum
%
Delta-T
°C
Wind Press
QNH
hPa
Press
MSL
hPa
Rain
since 9 am
mm
Dir
 
Spd
km/h
Gust
km/h
Spd
kts
Gust
kts
01/11:30pm 16.5 16.5 13.7 83 1.6 WNW 6 9 3 5 1009.4 - 0.0
01/11:00pm 15.4 15.2 13.5 88 1.1 NE 7 11 4 6 1009.6 - 0.0
01/10:30pm 15.8 15.6 13.7 87 1.2 ESE 7 11 4 6 1009.8 - 0.0
01/10:00pm 15.4 14.5 13.6 89 1.0 S 11 15 6 8 1009.9 - 0.0
01/09:30pm 15.2 15.1 13.4 89 1.0 ESE 6 9 3 5 1010.4 - 0.0
01/09:00pm 15.7 15.2 13.8 88 1.1 S 9 11 5 6 1010.8 1010.8 0.0
01/08:30pm 16.2 15.7 13.9 86 1.3 E 9 11 5 6 1010.7 - 0.0
01/08:00pm 16.3 15.9 14.0 86 1.3 ESE 9 11 5 6 1010.9 - 0.0
01/07:30pm 15.7 15.1 13.6 87 1.2 E 9 11 5 6 1011.1 - 0.0
01/07:00pm 16.4 15.8 13.6 83 1.6 NE 9 11 5 6 1011.1 - 0.0
01/06:30pm 16.8 16.1 14.4 86 1.4 NNE 11 13 6 7 1011.4 - 0.0
01/06:00pm 18.9 18.2 14.3 74 2.7 NNE 11 13 6 7 1011.3 1011.3 0.0
01/05:30pm 19.4 18.4 13.5 68 3.4 NNW 11 17 6 9 1011.8 - 0.0
01/05:00pm 19.1 18.1 13.5 70 3.2 NNW 11 15 6 8 1012.1 - 0.0
01/04:30pm 20.2 19.6 13.4 65 3.9 NNW 9 13 5 7 1012.4 - 0.0
01/04:00pm 18.9 17.3 12.9 68 3.4 NNW 13 19 7 10 1012.7 - 0.0
01/03:30pm 19.5 18.0 13.2 67 3.6 NNW 13 17 7 9 1013.3 - 0.0
01/03:00pm 19.8 18.9 13.8 68 3.5 NNW 11 17 6 9 1013.8 1013.8 0.0
01/02:30pm 20.2 19.4 14.0 67 3.6 N 11 17 6 9 1014.2 - 0.0
01/02:00pm 20.0 19.6 14.0 68 3.5 N 9 15 5 8 1014.6 - 0.0
01/01:30pm 19.7 18.6 14.2 70 3.2 NNE 13 19 7 10 1015.4 - 0.0
01/01:00pm 19.8 18.3 14.1 69 3.3 N 15 20 8 11 1015.9 - 0.0
01/12:30pm 19.5 18.6 13.6 68 3.4 N 11 17 6 9 1016.2 - 0.0
01/12:00pm 19.4 18.9 13.9 70 3.2 NNW 9 17 5 9 1016.8 1016.8 0.0
01/11:30am 19.5 19.0 13.8 69 3.3 N 9 15 5 8 1017.2 - 0.0
01/11:00am 18.9 18.4 11.9 64 3.9 NW 6 9 3 5 1017.4 - 0.0
01/10:30am 18.0 17.6 12.5 70 3.1 S 6 7 3 4 1017.7 - 0.0
01/10:00am 17.1 16.6 12.8 76 2.4 E 7 9 4 5 1018.1 - 0.0
01/09:30am 14.9 14.5 12.5 85 1.3 SE 6 9 3 5 1018.5 - 0.0
01/09:00am 12.7 11.8 11.4 92 0.7 SE 7 13 4 7 1018.7 1018.6 0.0
01/08:30am 11.3 9.7 10.3 94 0.5 SSE 9 11 5 6 1018.9 - 0.0
01/08:00am 10.8 8.7 9.6 92 0.6 SSE 11 15 6 8 1018.9 - 0.0
01/07:30am 10.9 9.5 9.5 91 0.7 S 7 9 4 5 1019.3 - 0.0
01/07:00am 10.2 10.0 9.2 93 0.5 CALM 0 0 0 0 1019.5 - 0.0
01/06:30am 10.8 8.9 9.2 90 0.8 SSE 9 13 5 7 1019.5 - 0.0
01/06:00am 10.8 9.0 9.4 91 0.7 S 9 13 5 7 1019.5 1019.5 0.0
01/05:30am 10.6 8.4 9.4 92 0.6 SSE 11 15 6 8 1019.8 - 0.0
01/05:00am 11.0 8.9 9.6 91 0.7 SSE 11 13 6 7 1020.0 - 0.0
01/04:30am 10.7 8.1 9.5 92 0.6 SSE 13 15 7 8 1020.1 - 0.0
01/04:00am 11.2 9.1 9.6 90 0.8 SSE 11 13 6 7 1020.6 - 0.0
01/03:30am 11.4 9.3 9.8 90 0.8 SSE 11 13 6 7 1021.0 - 0.0
01/03:00am 12.0 10.9 10.7 92 0.7 SSE 7 9 4 5 1021.4 1021.4 0.0
01/02:30am 10.5 9.1 9.5 93 0.5 SSE 7 9 4 5 1021.8 - 0.0
01/02:00am 11.2 9.5 9.8 91 0.7 SSE 9 11 5 6 1022.0 - 0.0
01/01:30am 12.5 11.4 10.8 89 0.9 SE 7 9 4 5 1022.4 - 0.0
01/01:00am 12.6 12.2 11.1 91 0.8 E 4 7 2 4 1022.8 - 0.0
01/12:30am 12.7 12.0 11.4 92 0.7 SSE 6 7 3 4 1022.9 - 0.0
01/12:00am 12.7 11.8 11.2 91 0.8 SSE 7 9 4 5 1023.2 1023.3 0.0
 
Date/Time
EDT
Temp
°C
App
Temp
°C
Dew
Point
Rel
Hum
%
Delta-T
°C
Wind Press
QNH
hPa
Press
MSL
hPa
Rain
since 9 am
mm
Dir
 
Spd
km/h
Gust
km/h
Spd
kts
Gust
kts
31/11:30pm 12.8 13.2 11.3 91 0.8 CALM 0 0 0 0 1023.5 - 0.0
31/11:00pm 12.2 12.6 11.3 94 0.5 CALM 0 0 0 0 1023.7 - 0.0
31/10:30pm 12.0 12.3 10.9 93 0.6 CALM 0 0 0 0 1023.7 - 0.0
31/10:00pm 11.3 11.4 10.1 92 0.6 CALM 0 0 0 0 1023.8 - 0.0
31/09:30pm 11.1 11.1 9.9 92 0.6 CALM 0 0 0 0 1023.5 - 0.0
31/09:00pm 13.0 12.2 11.1 88 1.0 WNW 6 7 3 4 1023.6 1023.4 0.0
31/08:30pm 13.8 13.0 11.2 84 1.4 W 6 11 3 6 1023.5 - 0.0
31/08:00pm 14.3 12.1 10.7 79 1.9 WNW 13 20 7 11 1023.2 - 0.0
31/07:30pm 14.3 12.6 11.3 82 1.6 NW 11 19 6 10 1023.0 - 0.0
31/07:00pm 14.6 13.3 11.2 80 1.8 NW 9 15 5 8 1022.7 - 0.0
31/06:30pm 15.3 13.9 10.8 74 2.4 WNW 9 15 5 8 1022.6 - 0.0
31/06:00pm 15.9 14.2 11.1 73 2.6 WNW 11 17 6 9 1022.6 1022.5 0.0
31/05:30pm 16.5 14.4 11.1 70 2.9 WNW 13 19 7 10 1022.7 - 0.0
31/05:00pm 16.4 14.3 11.2 71 2.8 NW 13 20 7 11 1022.7 - 0.0
31/04:30pm 16.8 13.6 11.3 70 3.0 NW 19 24 10 13 1022.7 - 0.0
31/04:00pm 17.7 15.3 11.3 66 3.5 WNW 15 24 8 13 1023.0 - 0.0
31/03:30pm 18.1 15.6 11.1 63 3.8 WNW 15 24 8 13 1023.1 - 0.0
31/03:00pm 18.1 15.9 10.7 62 4.0 WNW 13 26 7 14 1023.2 1023.1 0.0
31/02:30pm 18.4 16.0 11.3 63 3.9 WNW 15 22 8 12 1023.4 - 0.0
31/02:00pm 18.7 16.1 10.6 59 4.4 NW 15 28 8 15 1023.6 - 0.0
31/01:30pm 18.2 16.4 11.0 63 3.9 WNW 11 19 6 10 1023.9 - 0.0
31/01:00pm 16.8 15.5 11.3 70 3.0 W 9 15 5 8 1024.5 - 0.0
31/12:30pm 15.9 14.1 10.9 72 2.7 W 11 17 6 9 1024.9 - 0.0
31/12:00pm 15.8 13.6 10.9 72 2.6 NW 13 26 7 14 1025.3 1025.1 0.0
31/11:30am 15.2 13.3 10.5 73 2.5 W 11 19 6 10 1025.6 - 0.0
31/11:00am 14.5 11.7 10.1 75 2.3 W 15 24 8 13 1025.8 - 0.0
31/10:30am 14.2 12.6 10.2 77 2.1 W 9 19 5 10 1026.0 - 0.0
31/10:00am 13.6 12.0 10.1 79 1.8 W 9 17 5 9 1026.1 - 0.0
31/09:30am 12.9 10.9 10.2 84 1.4 W 11 15 6 8 1025.9 - 0.0
31/09:00am 12.0 10.7 9.9 87 1.1 SW 7 13 4 7 1025.8 1025.6 0.0
31/08:30am 11.2 10.5 10.0 92 0.6 W 4 9 2 5 1025.8 - 0.0
31/08:00am 10.4 9.3 10.0 97 0.2 SSE 6 7 3 4 1025.5 - 0.0
31/07:30am 8.1 5.9 7.9 99 0.1 ESE 9 11 5 6 1025.3 - 0.0
31/07:00am 8.0 5.8 7.8 99 0.1 E 9 11 5 6 1024.8 - 0.0
31/06:30am 7.8 5.9 7.6 99 0.1 ESE 7 11 4 6 1024.5 - 0.0
31/06:00am 7.9 5.6 7.5 97 0.2 SE 9 13 5 7 1024.3 1024.1 0.0
31/05:30am 7.9 7.2 7.0 94 0.4 CALM 0 0 0 0 1024.2 - 0.0
31/05:00am 7.2 5.4 7.0 99 0.1 SSE 6 6 3 3 1023.8 - 0.0
31/04:30am 8.2 6.6 8.0 99 0.1 E 6 9 3 5 1023.7 - 0.0
31/04:00am 8.4 5.9 8.0 97 0.2 SE 11 13 6 7 1023.5 - 0.0
31/03:30am 8.3 5.3 7.9 97 0.2 SSE 13 15 7 8 1023.9 - 0.0
31/03:00am 7.9 6.6 7.5 97 0.2 SSE 4 7 2 4 1023.8 1023.6 0.0
31/02:30am 8.1 6.2 7.7 97 0.2 ESE 7 9 4 5 1023.8 - 0.0
31/02:00am 8.1 6.2 7.7 97 0.2 SSE 7 9 4 5 1023.8 - 0.0
31/01:30am 8.3 6.1 7.9 97 0.2 SSE 9 11 5 6 1023.7 - 0.0
31/01:00am 8.6 6.9 8.2 97 0.2 SSE 7 9 4 5 1023.7 - 0.0
31/12:30am 8.2 6.4 8.0 99 0.1 E 7 9 4 5 1023.7 - 0.0
31/12:00am 8.5 8.0 7.9 96 0.3 CALM 0 0 0 0 1023.7 1023.5 0.0
 
Date/Time
EDT
Temp
°C
App
Temp
°C
Dew
Point
Rel
Hum
%
Delta-T
°C
Wind Press
QNH
hPa
Press
MSL
hPa
Rain
since 9 am
mm
Dir
 
Spd
km/h
Gust
km/h
Spd
kts
Gust
kts
30/11:30pm 8.4 7.8 7.6 95 0.4 CALM 0 0 0 0 1023.7 - 0.0
30/11:00pm 8.8 8.3 8.0 95 0.4 CALM 0 0 0 0 1023.6 - 0.0
30/10:30pm 9.8 9.4 8.4 91 0.7 CALM 0 0 0 0 1023.7 - 0.0
30/10:00pm 11.1 11.1 9.7 91 0.7 CALM 0 0 0 0 1023.6 - 0.0
30/09:30pm 11.3 10.1 9.5 89 0.9 NNW 6 7 3 4 1023.4 - 0.0
30/09:00pm 12.5 10.9 10.2 86 1.2 NNW 9 11 5 6 1023.1 1023.0 0.0

Other Formats:

Comma delimited format used in spreadsheet applications
http://www.bom.gov.au/fwo/IDT60801/IDT60801.94972.axf

JavaScript Object Notation format (JSON) in row-major order
http://www.bom.gov.au/fwo/IDT60801/IDT60801.94972.json